Time;durP1;ratioP1;P1;durP2;ratioP2;P2;SDS_P1;SDS_P2;PMS_P1;PMS_P2;Temp;Humidity;BMP_temperature;BMP_pressure;BME280_temperature;BME280_humidity;BME280_pressure;Samples;Min_cycle;Max_cycle;Signal;HPM_P1;HPM_P2
2022/05/26 00:01:40;;;;;;;1.93;1.77;;;;;;;19.99;nan;94344.44;5000969;28;20283;-72
2022/05/26 00:04:24;;;;;;;1.93;1.73;;;;;;;20.26;nan;94343.41;5003305;28;20207;-72
2022/05/26 00:07:08;;;;;;;2.17;1.73;;;;;;;20.18;nan;94343.09;5011420;28;20279;-72
2022/05/26 00:09:52;;;;;;;3.43;2.03;;;;;;;19.77;nan;94341.34;5011667;28;20179;-70
2022/05/26 00:12:36;;;;;;;3.40;2.10;;;;;;;20.18;nan;94343.78;4995906;28;20275;-72
2022/05/26 00:15:20;;;;;;;4.27;2.13;;;;;;;20.28;nan;94340.66;4995300;28;20207;-72
2022/05/26 00:18:04;;;;;;;2.83;2.17;;;;;;;20.21;nan;94347.47;4992391;28;20262;-72
2022/05/26 00:20:48;;;;;;;6.03;2.10;;;;;;;19.30;nan;94346.31;4988153;28;20262;-72
2022/05/26 00:23:33;;;;;;;8.07;2.50;;;;;;;19.29;nan;94350.50;5012621;28;20202;-72
2022/05/26 00:26:17;;;;;;;5.17;3.00;;;;;;;19.71;nan;94343.91;5007777;28;20591;-72
2022/05/26 00:29:03;;;;;;;3.47;3.00;;;;;;;20.14;nan;94351.44;5014639;28;20760;-72
2022/05/26 00:31:47;;;;;;;5.93;4.20;;;;;;;20.27;nan;94350.56;4997667;28;20223;-72
2022/05/26 00:34:31;;;;;;;4.13;3.57;;;;;;;20.54;nan;94355.28;4982588;28;20698;-72
2022/05/26 00:37:15;;;;;;;7.27;3.07;;;;;;;20.47;nan;94339.31;5010233;28;20246;-72
2022/05/26 00:40:01;;;;;;;11.07;6.40;;;;;;;20.24;nan;94348.31;5013966;28;20278;-72
2022/05/26 00:42:49;;;;;;;10.43;9.30;;;;;;;20.40;nan;94341.19;5012122;28;20198;-72
2022/05/26 00:45:37;;;;;;;6.03;4.30;;;;;;;20.11;nan;94347.06;5008294;28;20195;-72
2022/05/26 00:48:26;;;;;;;8.53;5.23;;;;;;;19.78;nan;94339.97;5014428;28;20718;-72
2022/05/26 00:51:12;;;;;;;15.60;9.20;;;;;;;19.68;nan;94347.31;4998691;28;20230;-72
2022/05/26 00:54:01;;;;;;;12.10;6.20;;;;;;;19.27;nan;94341.88;4995316;28;20204;-72
2022/05/26 00:56:52;;;;;;;5.73;4.37;;;;;;;19.23;nan;94355.91;5006745;28;20551;-72
2022/05/26 00:59:51;;;;;;;4.83;3.80;;;;;;;19.09;nan;94344.63;4981423;28;20242;-72
2022/05/26 01:02:41;;;;;;;8.63;4.80;;;;;;;19.22;nan;94343.09;5010310;28;20227;-72
2022/05/26 01:05:30;;;;;;;9.47;5.03;;;;;;;19.10;nan;94348.22;4983577;28;20206;-71
2022/05/26 01:08:22;;;;;;;5.93;4.90;;;;;;;18.99;nan;94347.75;5009080;28;20208;-70
2022/05/26 01:11:07;;;;;;;5.90;3.90;;;;;;;19.02;nan;94354.25;5004623;28;20539;-72
2022/05/26 01:14:07;;;;;;;11.33;9.50;;;;;;;18.91;nan;94344.50;5014229;28;20199;-72
2022/05/26 01:17:32;;;;;;;8.20;6.13;;;;;;;18.85;nan;94349.91;5005817;28;20195;-72
2022/05/26 01:20:44;;;;;;;6.03;5.07;;;;;;;18.69;nan;94349.16;4990004;28;20254;-72
2022/05/26 01:24:08;;;;;;;6.13;5.23;;;;;;;18.48;nan;94352.34;4993160;28;20211;-72
2022/05/26 01:27:01;;;;;;;6.13;5.30;;;;;;;18.43;nan;94357.09;4999697;28;20348;-72
2022/05/26 01:30:04;;;;;;;4.67;4.27;;;;;;;18.01;nan;94358.56;4992716;28;20246;-72
2022/05/26 01:33:06;;;;;;;5.50;5.00;;;;;;;17.93;nan;94363.81;5002623;28;20261;-72
2022/05/26 01:36:06;;;;;;;8.40;5.30;;;;;;;18.10;nan;94354.75;5002501;28;20869;-72
2022/05/26 01:39:00;;;;;;;5.50;5.00;;;;;;;17.90;nan;94359.38;5012605;28;20215;-72
2022/05/26 01:42:26;;;;;;;6.57;4.73;;;;;;;17.93;nan;94355.31;4983445;28;20252;-72
2022/05/26 01:45:28;;;;;;;7.27;5.33;;;;;;;17.66;nan;94353.22;5004474;28;20195;-72
2022/05/26 01:48:19;;;;;;;6.53;5.30;;;;;;;17.51;nan;94353.09;5001600;28;20675;-72
2022/05/26 01:51:56;;;;;;;7.00;5.77;;;;;;;17.47;nan;94347.91;5007986;28;20211;-72
2022/05/26 01:54:52;;;;;;;10.60;5.50;;;;;;;17.26;nan;94345.41;4996473;28;20266;-72
2022/05/26 01:57:49;;;;;;;9.60;5.90;;;;;;;17.16;nan;94342.00;4993442;28;20567;-72
2022/05/26 02:00:33;;;;;;;6.50;5.67;;;;;;;17.06;nan;94356.38;5002737;28;20591;-72
2022/05/26 02:03:22;;;;;;;11.57;5.83;;;;;;;16.83;nan;94350.88;5009547;28;20601;-72
2022/05/26 02:06:09;;;;;;;6.67;5.57;;;;;;;16.73;nan;94358.78;5009464;28;20255;-72
2022/05/26 02:09:07;;;;;;;9.40;6.73;;;;;;;16.73;nan;94370.09;5005477;28;20553;-72
2022/05/26 02:12:30;;;;;;;10.87;6.33;;;;;;;16.41;nan;94369.75;4996885;28;20251;-72
2022/05/26 02:15:35;;;;;;;10.23;6.80;;;;;;;16.73;nan;94370.09;4985697;28;20226;-72
2022/05/26 02:18:33;;;;;;;7.73;6.20;;;;;;;16.73;nan;94364.44;5003315;28;20250;-72
2022/05/26 02:21:25;;;;;;;12.17;5.70;;;;;;;16.81;nan;94359.22;5006725;28;20262;-72
2022/05/26 02:24:53;;;;;;;8.37;5.63;;;;;;;16.93;nan;94359.91;5010889;28;20622;-72
2022/05/26 02:27:38;;;;;;;8.57;5.53;;;;;;;16.73;nan;94358.78;4992178;28;20278;-72
2022/05/26 02:30:27;;;;;;;6.33;5.63;;;;;;;16.46;nan;94360.13;5009200;28;20199;-72
2022/05/26 02:33:15;;;;;;;8.37;6.03;;;;;;;16.62;nan;94370.91;4996425;28;20194;-71
2022/05/26 02:35:59;;;;;;;8.20;6.07;;;;;;;16.76;nan;94363.94;4996153;28;20207;-73
2022/05/26 02:38:43;;;;;;;11.53;6.10;;;;;;;16.55;nan;94366.97;4995396;28;20583;-73
2022/05/26 02:41:29;;;;;;;9.20;6.40;;;;;;;16.37;nan;94363.84;4994434;28;20286;-71
2022/05/26 02:44:14;;;;;;;8.67;7.27;;;;;;;16.38;nan;94365.31;5008346;28;20211;-70
2022/05/26 02:47:13;;;;;;;10.03;7.07;;;;;;;16.33;nan;94362.88;5005606;28;20242;-72
2022/05/26 02:50:16;;;;;;;11.70;7.33;;;;;;;16.48;nan;94365.88;4994568;28;20196;-73
2022/05/26 02:53:18;;;;;;;8.67;7.17;;;;;;;16.67;nan;94364.09;5009791;28;20238;-72
2022/05/26 02:56:27;;;;;;;8.13;7.33;;;;;;;16.72;nan;94363.00;4998108;28;20198;-73
2022/05/26 02:59:25;;;;;;;13.87;6.77;;;;;;;17.03;nan;94371.06;5008008;28;20234;-75
2022/05/26 03:02:14;;;;;;;13.00;7.70;;;;;;;17.18;nan;94357.03;5012019;28;20314;-73
2022/05/26 03:05:15;;;;;;;9.77;7.10;;;;;;;17.30;nan;94368.25;5011977;28;20202;-74
2022/05/26 03:08:03;;;;;;;10.73;6.17;;;;;;;17.01;nan;94366.00;5004605;28;20211;-74
2022/05/26 03:10:50;;;;;;;8.20;6.30;;;;;;;17.21;nan;94367.13;4977282;28;20283;-73
2022/05/26 03:13:35;;;;;;;8.27;5.83;;;;;;;17.24;nan;94365.84;4995593;28;20251;-73
2022/05/26 03:16:21;;;;;;;12.23;6.50;;;;;;;17.18;nan;94374.00;5007872;28;20195;-73
2022/05/26 03:19:06;;;;;;;14.47;6.50;;;;;;;17.28;nan;94371.72;5002289;28;20216;-74
2022/05/26 03:21:49;;;;;;;9.57;6.13;;;;;;;17.29;nan;94378.13;5005365;28;20206;-74
2022/05/26 03:24:34;;;;;;;10.90;6.57;;;;;;;17.34;nan;94369.22;5011392;28;20203;-74
2022/05/26 03:27:18;;;;;;;10.80;6.50;;;;;;;17.45;nan;94378.25;4992525;28;20292;-75
2022/05/26 03:30:03;;;;;;;9.70;6.37;;;;;;;17.46;nan;94383.31;4995896;28;20203;-75
2022/05/26 03:32:47;;;;;;;6.63;5.97;;;;;;;17.73;nan;94385.44;5007251;28;20200;-74
2022/05/26 03:41:37;;;;;;;9.13;5.50;;;;;;;17.95;nan;94400.78;5004706;28;20279;-75
2022/05/26 03:44:24;;;;;;;7.67;5.77;;;;;;;18.00;nan;94396.78;5011569;28;20222;-74
2022/05/26 03:47:08;;;;;;;6.40;5.40;;;;;;;17.91;nan;94403.38;4995974;28;20214;-75
2022/05/26 03:49:52;;;;;;;5.73;5.10;;;;;;;18.42;nan;94400.28;5007982;28;20282;-74
2022/05/26 03:52:37;;;;;;;6.37;5.23;;;;;;;18.76;nan;94413.34;5006119;28;20249;-75
2022/05/26 03:55:23;;;;;;;6.87;5.40;;;;;;;18.81;nan;94406.50;5008369;28;20214;-74
2022/05/26 03:58:07;;;;;;;8.77;6.00;;;;;;;18.86;nan;94407.44;4994973;28;20326;-74
2022/05/26 04:00:52;;;;;;;6.83;5.23;;;;;;;19.05;nan;94411.88;5015280;28;20218;-74
2022/05/26 04:03:36;;;;;;;8.83;5.87;;;;;;;19.08;nan;94407.75;5011752;28;20270;-75
2022/05/26 04:06:21;;;;;;;6.23;5.00;;;;;;;19.24;nan;94417.06;5003551;28;20251;-75
2022/05/26 04:09:05;;;;;;;10.40;5.27;;;;;;;19.39;nan;94422.00;5011392;28;20202;-75
2022/05/26 04:11:49;;;;;;;6.83;5.70;;;;;;;19.60;nan;94427.28;5013896;28;20203;-75
2022/05/26 04:14:34;;;;;;;9.43;5.23;;;;;;;19.57;nan;94437.09;5006734;28;20582;-75
2022/05/26 04:17:18;;;;;;;6.67;4.57;;;;;;;19.03;nan;94443.75;5000523;28;20194;-73
2022/05/26 04:20:04;;;;;;;7.40;4.77;;;;;;;19.85;nan;94448.31;5010469;28;20222;-75
2022/05/26 04:22:49;;;;;;;5.13;4.20;;;;;;;19.66;nan;94444.63;4998906;28;20279;-74
2022/05/26 04:25:33;;;;;;;7.10;3.47;;;;;;;19.67;nan;94451.78;5004815;28;20215;-75
2022/05/26 04:28:17;;;;;;;4.47;3.50;;;;;;;20.09;nan;94455.06;5003702;28;20675;-75
2022/05/26 04:31:02;;;;;;;2.93;2.70;;;;;;;19.75;nan;94452.13;5013117;28;20206;-75
2022/05/26 04:33:47;;;;;;;4.00;2.60;;;;;;;20.32;nan;94448.22;4985252;28;20204;-75
2022/05/26 04:36:31;;;;;;;3.00;2.33;;;;;;;20.07;nan;94457.81;4987630;28;20270;-75
2022/05/26 04:39:16;;;;;;;3.63;1.83;;;;;;;19.89;nan;94454.91;5007149;28;20199;-75
2022/05/26 04:42:03;;;;;;;2.20;1.80;;;;;;;19.65;nan;94454.53;5012078;28;20557;-75
2022/05/26 04:44:49;;;;;;;5.40;1.70;;;;;;;19.51;nan;94458.81;5004489;28;20621;-75
2022/05/26 04:47:33;;;;;;;1.70;1.60;;;;;;;19.64;nan;94458.75;5011184;28;20291;-75
2022/05/26 04:50:17;;;;;;;3.10;1.90;;;;;;;20.82;nan;94455.38;4997435;28;21816;-75
2022/05/26 04:53:02;;;;;;;2.87;1.50;;;;;;;20.91;nan;94454.34;5000685;28;20247;-75
2022/05/26 04:55:46;;;;;;;1.73;1.57;;;;;;;20.95;nan;94457.34;4999950;28;20346;-75
2022/05/26 04:58:30;;;;;;;5.30;1.63;;;;;;;21.55;nan;94464.03;5004284;28;20240;-75
2022/05/26 05:01:15;;;;;;;2.20;1.70;;;;;;;21.10;nan;94470.81;5013513;28;20366;-76
2022/05/26 05:04:00;;;;;;;2.40;1.50;;;;;;;21.86;nan;94463.81;5005549;28;20214;-76
2022/05/26 05:06:44;;;;;;;1.83;1.47;;;;;;;22.40;nan;94465.13;5005108;28;20199;-75
2022/05/26 05:09:28;;;;;;;2.17;1.40;;;;;;;22.40;nan;94467.25;4988562;28;20275;-75
2022/05/26 05:12:15;;;;;;;3.20;1.40;;;;;;;22.42;nan;94473.03;4987931;28;20206;-75
2022/05/26 05:15:03;;;;;;;3.20;1.10;;;;;;;22.85;nan;94478.13;5005686;28;20198;-74
2022/05/26 05:17:46;;;;;;;1.90;1.30;;;;;;;22.79;nan;94470.06;5012120;28;20198;-74
2022/05/26 05:20:33;;;;;;;2.13;1.60;;;;;;;22.32;nan;94475.53;4995754;28;20266;-74
2022/05/26 05:23:17;;;;;;;5.43;1.70;;;;;;;22.55;nan;94483.50;4996894;28;20696;-74
2022/05/26 05:26:01;;;;;;;2.43;1.33;;;;;;;22.42;nan;94484.44;5001160;28;20927;-74
2022/05/26 05:28:52;;;;;;;2.00;1.30;;;;;;;23.32;nan;94489.00;4994371;28;20234;-74
2022/05/26 05:31:51;;;;;;;1.47;1.20;;;;;;;23.05;nan;94490.25;5011369;28;20776;-73
2022/05/26 05:34:41;;;;;;;1.73;1.10;;;;;;;23.43;nan;94496.50;5003055;28;20637;-75
2022/05/26 05:37:26;;;;;;;1.73;1.43;;;;;;;23.60;nan;94500.63;4986714;28;20574;-75
2022/05/26 05:40:10;;;;;;;5.97;1.20;;;;;;;23.99;nan;94499.69;5003904;28;20310;-74
2022/05/26 05:42:55;;;;;;;4.93;1.10;;;;;;;23.39;nan;94504.97;4992461;28;20227;-74
2022/05/26 05:45:39;;;;;;;3.23;1.37;;;;;;;23.96;nan;94506.75;5007334;28;20246;-74
2022/05/26 05:48:24;;;;;;;2.30;1.40;;;;;;;23.85;nan;94513.56;5013532;28;20199;-74
2022/05/26 05:51:08;;;;;;;2.10;1.20;;;;;;;24.05;nan;94519.94;4991109;28;20211;-74
2022/05/26 05:53:52;;;;;;;4.07;1.30;;;;;;;24.47;nan;94523.34;5003119;28;20280;-78
2022/05/26 05:56:36;;;;;;;3.43;1.10;;;;;;;24.54;nan;94519.97;5003899;28;20199;-77
2022/05/26 05:59:20;;;;;;;3.40;0.90;;;;;;;24.48;nan;94519.81;4994222;28;20277;-78
2022/05/26 06:02:04;;;;;;;1.90;1.00;;;;;;;24.31;nan;94523.59;5025944;28;20762;-78
2022/05/26 06:04:49;;;;;;;3.10;1.23;;;;;;;24.97;nan;94526.91;5009694;28;20631;-77
2022/05/26 06:07:34;;;;;;;4.53;1.23;;;;;;;24.38;nan;94528.09;4997612;28;20223;-77
2022/05/26 06:10:18;;;;;;;2.53;1.27;;;;;;;24.63;nan;94534.53;4995321;28;20199;-77
2022/05/26 06:13:03;;;;;;;1.90;1.17;;;;;;;24.84;nan;94548.03;5011352;28;20202;-78
2022/05/26 06:15:47;;;;;;;3.03;1.20;;;;;;;25.02;nan;94545.69;5007917;28;20210;-73
2022/05/26 06:18:32;;;;;;;2.20;0.90;;;;;;;24.54;nan;94540.03;4991669;28;20284;-73
2022/05/26 06:21:16;;;;;;;5.63;1.10;;;;;;;25.53;nan;94558.47;4992049;28;20235;-73
2022/05/26 06:24:00;;;;;;;3.73;1.23;;;;;;;25.29;nan;94549.97;4999317;28;20286;-73
2022/05/26 06:26:44;;;;;;;3.60;0.80;;;;;;;25.13;nan;94547.41;5006147;28;20266;-72
2022/05/26 06:38:57;;;;;;;2.00;0.80;;;;;;;25.24;nan;94549.13;5006303;28;20691;-71
2022/05/26 06:44:45;;;;;;;1.77;1.13;;;;;;;26.51;nan;94560.13;5004475;28;20210;-74
2022/05/26 06:47:29;;;;;;;1.77;0.90;;;;;;;26.47;nan;94559.31;5003641;28;20227;-74
2022/05/26 06:50:14;;;;;;;2.87;0.80;;;;;;;27.00;nan;94572.66;4992355;28;20187;-72
2022/05/26 06:52:58;;;;;;;1.10;0.80;;;;;;;26.17;nan;94565.78;5000651;28;20311;-73
2022/05/26 06:55:42;;;;;;;1.67;1.10;;;;;;;26.59;nan;94571.06;5006901;28;20198;-74
2022/05/26 06:58:27;;;;;;;1.10;0.70;;;;;;;27.20;nan;94572.31;4999503;28;20622;-73
2022/05/26 07:01:14;;;;;;;1.23;0.80;;;;;;;27.50;nan;94570.00;5005926;28;20285;-74
2022/05/26 07:03:58;;;;;;;2.10;0.90;;;;;;;27.07;nan;94582.13;5006704;28;20211;-73
2022/05/26 07:06:47;;;;;;;4.43;1.00;;;;;;;26.53;nan;94573.81;4994019;28;20202;-74
2022/05/26 07:09:32;;;;;;;4.43;1.10;;;;;;;27.28;nan;94581.13;4999710;28;20217;-74
2022/05/26 07:12:16;;;;;;;3.57;0.77;;;;;;;26.40;nan;94577.84;5005350;28;20699;-74
2022/05/26 07:15:03;;;;;;;4.37;0.90;;;;;;;26.88;nan;94578.91;4995598;28;20198;-74
2022/05/26 07:17:48;;;;;;;3.40;0.90;;;;;;;27.52;nan;94572.94;5011821;28;20670;-73
2022/05/26 07:20:33;;;;;;;3.83;1.08;;;;;;;27.72;nan;94567.53;5007807;28;20227;-73
2022/05/26 07:23:18;;;;;;;1.52;0.80;;;;;;;26.86;nan;94569.44;5006134;28;20197;-72
2022/05/26 07:26:11;;;;;;;12.63;7.88;;;;;;;26.48;nan;94572.25;5000394;28;20582;-73
2022/05/26 07:28:56;;;;;;;2.75;1.60;;;;;;;26.38;nan;94574.91;4992842;28;20250;-73
2022/05/26 07:31:41;;;;;;;8.07;1.10;;;;;;;26.35;nan;94570.53;5007374;28;20566;-73
2022/05/26 07:34:25;;;;;;;1.42;0.90;;;;;;;27.17;nan;94580.16;5002388;28;20211;-73
2022/05/26 07:43:15;;;;;;;0.73;0.73;;;;;;;27.58;nan;94575.94;4989220;28;20207;-73
2022/05/26 07:46:00;;;;;;;2.15;0.80;;;;;;;28.07;nan;94577.47;5001638;28;20253;-74
2022/05/26 07:48:44;;;;;;;1.83;1.02;;;;;;;28.34;nan;94581.50;4977170;28;20259;-74
2022/05/26 07:51:28;;;;;;;2.92;0.77;;;;;;;29.86;nan;94573.94;4992769;28;20583;-74
2022/05/26 07:54:13;;;;;;;1.88;0.90;;;;;;;27.19;nan;94583.09;4955414;28;20211;-74
2022/05/26 07:56:59;;;;;;;1.17;0.80;;;;;;;29.26;nan;94569.72;5009691;28;20199;-73
2022/05/26 07:59:44;;;;;;;2.03;1.02;;;;;;;28.45;nan;94574.44;4991703;28;20283;-74
2022/05/26 08:02:28;;;;;;;1.15;0.82;;;;;;;29.72;nan;94577.44;4991427;28;20230;-74
2022/05/26 08:05:13;;;;;;;4.07;1.08;;;;;;;29.17;nan;94582.63;4993785;28;20203;-74
2022/05/26 08:07:57;;;;;;;4.20;1.20;;;;;;;29.30;nan;94584.22;5012068;28;20663;-74
2022/05/26 08:10:41;;;;;;;3.45;0.70;;;;;;;30.03;nan;94579.19;5011657;28;20219;-74
2022/05/26 08:13:26;;;;;;;1.98;0.95;;;;;;;29.70;nan;94586.81;4999072;28;20202;-73
2022/05/26 08:16:10;;;;;;;1.65;0.75;;;;;;;28.92;nan;94578.72;5010737;28;20368;-73
2022/05/26 08:18:54;;;;;;;1.67;0.85;;;;;;;27.71;nan;94577.56;4991961;28;20199;-74
2022/05/26 08:21:39;;;;;;;6.22;0.75;;;;;;;28.43;nan;94571.53;5007738;28;20215;-73
2022/05/26 08:24:24;;;;;;;4.78;0.70;;;;;;;28.08;nan;94578.19;4995139;28;20251;-73
2022/05/26 08:27:09;;;;;;;1.85;0.65;;;;;;;26.07;nan;94582.81;4999377;28;20247;-74
2022/05/26 08:29:54;;;;;;;2.67;1.00;;;;;;;26.50;nan;94575.16;5009668;28;20198;-74
2022/05/26 08:32:38;;;;;;;5.38;0.88;;;;;;;26.46;nan;94580.84;5004404;28;20399;-74
2022/05/26 08:35:23;;;;;;;3.13;0.90;;;;;;;28.51;nan;94577.44;4998182;28;20202;-73
2022/05/26 08:38:07;;;;;;;4.03;0.95;;;;;;;28.70;nan;94583.44;5006127;28;20199;-75
2022/05/26 08:40:52;;;;;;;3.30;0.68;;;;;;;30.97;nan;94583.41;5009773;28;20211;-74
2022/05/26 08:43:44;;;;;;;3.00;0.70;;;;;;;31.44;nan;94581.44;5002976;28;20239;-73
2022/05/26 08:47:04;;;;;;;1.70;0.52;;;;;;;29.25;nan;94574.06;5007209;28;20287;-73
2022/05/26 08:50:10;;;;;;;1.00;0.50;;;;;;;29.39;nan;94590.09;5005397;28;20199;-74
2022/05/26 08:53:00;;;;;;;0.73;0.50;;;;;;;29.37;nan;94592.97;5007403;28;20689;-74
2022/05/26 08:55:47;;;;;;;2.67;0.70;;;;;;;27.65;nan;94589.00;4997743;28;20808;-74
2022/05/26 08:58:39;;;;;;;1.63;0.70;;;;;;;28.80;nan;94589.38;4998455;28;20222;-73
2022/05/26 09:01:27;;;;;;;4.38;0.70;;;;;;;28.75;nan;94587.88;5026138;28;20245;-73
2022/05/26 09:04:12;;;;;;;1.48;0.63;;;;;;;30.31;nan;94586.59;5016605;28;20218;-73
2022/05/26 09:13:10;;;;;;;2.40;0.70;;;;;;;29.72;nan;94589.72;5020380;28;20205;-73
2022/05/26 09:15:54;;;;;;;2.15;0.80;;;;;;;29.42;nan;94586.53;5021232;28;20214;-72
2022/05/26 09:18:40;;;;;;;0.55;0.50;;;;;;;28.66;nan;94584.09;5033775;28;20214;-73
2022/05/26 09:21:28;;;;;;;4.22;0.50;;;;;;;29.60;nan;94588.88;5020826;28;20285;-73
2022/05/26 09:24:30;;;;;;;1.95;0.50;;;;;;;28.73;nan;94590.69;5017793;28;20644;-73
2022/05/26 09:27:36;;;;;;;1.58;0.57;;;;;;;28.80;nan;94590.09;5025170;28;20234;-73
2022/05/26 09:30:33;;;;;;;2.30;0.70;;;;;;;28.45;nan;94585.97;5015242;28;20190;-73
2022/05/26 09:33:31;;;;;;;4.25;0.77;;;;;;;29.06;nan;94598.38;5001813;28;20195;-73
2022/05/26 09:36:24;;;;;;;3.55;0.70;;;;;;;28.07;nan;94594.75;5021684;28;20206;-72
2022/05/26 09:39:09;;;;;;;1.50;0.60;;;;;;;28.28;nan;94595.81;5013841;28;20360;-73
2022/05/26 09:41:56;;;;;;;1.42;0.63;;;;;;;29.13;nan;94596.28;5031900;28;20278;-72
2022/05/26 09:44:46;;;;;;;1.98;0.52;;;;;;;29.47;nan;94595.97;5017826;28;20297;-73
2022/05/26 09:47:53;;;;;;;2.28;0.60;;;;;;;30.55;nan;94601.28;5000967;28;20248;-72
2022/05/26 09:50:42;;;;;;;1.45;0.50;;;;;;;29.50;nan;94603.94;5017562;28;20229;-73
2022/05/26 09:53:33;;;;;;;0.85;0.40;;;;;;;30.44;nan;94605.50;5009391;28;20687;-73
2022/05/26 09:56:38;;;;;;;3.38;0.57;;;;;;;30.26;nan;94602.47;5025179;28;20205;-73
2022/05/26 09:59:27;;;;;;;0.52;0.38;;;;;;;30.46;nan;94608.41;5029878;28;20690;-71
2022/05/26 10:02:26;;;;;;;0.77;0.40;;;;;;;31.22;nan;94607.44;4997556;28;20218;-73
2022/05/26 10:05:33;;;;;;;1.08;0.57;;;;;;;31.87;nan;94611.25;4998802;28;20278;-72
2022/05/26 10:08:32;;;;;;;2.03;0.88;;;;;;;31.17;nan;94608.88;5024955;28;20245;-73
2022/05/26 10:11:37;;;;;;;4.00;0.57;;;;;;;30.87;nan;94612.31;5016748;28;20284;-71
2022/05/26 10:15:00;;;;;;;1.50;0.52;;;;;;;30.74;nan;94610.78;5024182;28;20571;-72
2022/05/26 10:17:57;;;;;;;1.38;0.50;;;;;;;31.21;nan;94611.78;5027593;28;20218;-72
2022/05/26 10:21:06;;;;;;;4.55;0.77;;;;;;;31.78;nan;94606.91;5018055;28;20218;-72
2022/05/26 10:24:05;;;;;;;1.52;0.80;;;;;;;32.73;nan;94618.53;5022383;28;20278;-73
2022/05/26 10:27:15;;;;;;;1.48;0.68;;;;;;;34.99;nan;94606.31;5019310;28;20289;-72
2022/05/26 10:30:17;;;;;;;1.40;0.50;;;;;;;34.20;nan;94604.06;5024116;28;20209;-72
2022/05/26 10:33:23;;;;;;;3.00;0.75;;;;;;;33.68;nan;94602.97;5032515;28;20588;-73
2022/05/26 10:36:54;;;;;;;3.03;0.60;;;;;;;34.17;nan;94605.56;5005194;28;20314;-71
2022/05/26 10:40:00;;;;;;;2.33;0.57;;;;;;;33.63;nan;94605.19;5024678;28;20221;-71
2022/05/26 10:42:55;;;;;;;1.67;0.63;;;;;;;33.08;nan;94618.47;5028614;28;20651;-72
2022/05/26 10:45:44;;;;;;;1.10;0.60;;;;;;;32.43;nan;94606.94;5016776;28;20582;-71
2022/05/26 10:48:32;;;;;;;1.75;0.43;;;;;;;32.76;nan;94590.25;4999436;28;20696;-71
2022/05/26 10:51:22;;;;;;;2.10;0.88;;;;;;;33.73;nan;94601.50;5015412;28;20252;-72
2022/05/26 10:54:15;;;;;;;2.17;0.50;;;;;;;33.43;nan;94602.38;5024301;28;20643;-71
2022/05/26 10:57:18;;;;;;;4.22;0.77;;;;;;;33.73;nan;94601.50;5023398;28;20198;-71
2022/05/26 11:00:24;;;;;;;2.30;0.68;;;;;;;32.89;nan;94597.47;5025206;28;20234;-71
2022/05/26 11:03:14;;;;;;;1.95;0.60;;;;;;;34.21;nan;94585.19;5011368;28;20265;-74
2022/05/26 11:06:16;;;;;;;0.70;0.60;;;;;;;33.63;nan;94587.00;5005816;28;20251;-73
2022/05/26 11:09:08;;;;;;;1.35;0.50;;;;;;;33.54;nan;94583.41;5004255;28;20190;-72
2022/05/26 11:11:59;;;;;;;2.33;0.57;;;;;;;33.93;nan;94583.94;4982400;28;20271;-72
2022/05/26 11:17:59;;;;;;;1.05;0.52;;;;;;;32.80;nan;94590.94;5004911;28;20692;-71
2022/05/26 11:20:59;;;;;;;4.25;0.63;;;;;;;33.65;nan;94584.81;5010154;28;20825;-72
2022/05/26 11:23:45;;;;;;;3.90;0.60;;;;;;;33.93;nan;94586.84;5008105;28;20191;-71
2022/05/26 11:26:40;;;;;;;1.60;0.40;;;;;;;34.71;nan;94590.59;4986103;28;20215;-71
2022/05/26 11:29:46;;;;;;;1.25;0.68;;;;;;;33.63;nan;94592.81;4988830;28;20257;-71
2022/05/26 11:38:51;;;;;;;1.33;0.60;;;;;;;37.44;nan;94587.97;5011813;28;20198;-70
2022/05/26 11:41:47;;;;;;;1.13;0.40;;;;;;;35.88;nan;94587.72;4994593;28;20735;-71
2022/05/26 11:44:56;;;;;;;0.98;0.40;;;;;;;37.28;nan;94583.19;5004098;28;20255;-71
2022/05/26 11:48:00;;;;;;;1.75;0.32;;;;;;;36.58;nan;94576.41;5011059;28;20249;-71
2022/05/26 11:51:23;;;;;;;1.00;0.30;;;;;;;38.76;nan;94573.94;5010538;28;20239;-71
2022/05/26 11:54:09;;;;;;;2.03;0.50;;;;;;;36.71;nan;94583.50;4984730;28;20248;-71
2022/05/26 11:56:55;;;;;;;2.40;0.30;;;;;;;37.23;nan;94579.59;5009209;28;20198;-71
2022/05/26 11:59:45;;;;;;;3.60;0.63;;;;;;;40.05;nan;94578.34;4992682;28;20254;-72
2022/05/26 12:02:31;;;;;;;3.42;0.68;;;;;;;38.16;nan;94573.94;5005894;28;20303;-71
2022/05/26 12:05:30;;;;;;;2.35;0.60;;;;;;;36.14;nan;94572.75;5008335;28;20203;-71
2022/05/26 12:08:38;;;;;;;0.90;0.50;;;;;;;37.25;nan;94564.22;5009214;28;20211;-71
2022/05/26 12:12:07;;;;;;;2.53;0.40;;;;;;;35.25;nan;94571.78;4994766;28;20250;-70
2022/05/26 12:14:55;;;;;;;1.70;0.55;;;;;;;33.56;nan;94554.34;5004469;28;20203;-69
2022/05/26 12:17:55;;;;;;;0.85;0.45;;;;;;;35.41;nan;94556.28;5015222;28;20570;-71
2022/05/26 12:20:42;;;;;;;2.33;0.70;;;;;;;37.67;nan;94562.63;5013751;28;20365;-71
2022/05/26 12:23:27;;;;;;;3.17;0.43;;;;;;;38.36;nan;94549.31;5006353;28;20208;-71
2022/05/26 12:26:47;;;;;;;1.58;0.40;;;;;;;37.04;nan;94555.09;5006908;28;20286;-72
2022/05/26 12:29:46;;;;;;;2.35;0.57;;;;;;;36.77;nan;94545.44;5014786;28;20297;-71
2022/05/26 12:32:34;;;;;;;1.27;0.50;;;;;;;39.21;nan;94541.19;5009186;28;20699;-72
2022/05/26 12:35:32;;;;;;;1.90;0.35;;;;;;;40.31;nan;94548.13;5010975;28;20580;-72
2022/05/26 12:38:29;;;;;;;2.10;0.65;;;;;;;38.71;nan;94546.94;5014453;28;20198;-72
2022/05/26 12:41:44;;;;;;;1.85;0.45;;;;;;;40.52;nan;94550.41;5013079;28;20331;-72
2022/05/26 12:44:43;;;;;;;1.88;0.70;;;;;;;39.92;nan;94545.00;4986232;28;20207;-72
2022/05/26 12:47:36;;;;;;;0.85;0.40;;;;;;;38.16;nan;94549.78;5012174;28;20679;-71
2022/05/26 12:50:24;;;;;;;1.10;0.30;;;;;;;40.70;nan;94538.03;4999003;28;20579;-71
2022/05/26 12:53:15;;;;;;;0.73;0.40;;;;;;;36.79;nan;94548.28;5008219;28;20207;-71
2022/05/26 12:56:00;;;;;;;3.40;0.55;;;;;;;33.97;nan;94525.72;5000968;28;20246;-72
2022/05/26 12:58:57;;;;;;;1.52;0.45;;;;;;;34.52;nan;94533.97;4991497;28;20199;-71
2022/05/26 13:01:47;;;;;;;0.20;0.20;;;;;;;36.52;nan;94532.72;5012678;28;20649;-72
2022/05/26 13:04:35;;;;;;;0.68;0.30;;;;;;;39.69;nan;94527.31;5002748;28;20623;-72
2022/05/26 13:07:19;;;;;;;0.98;0.40;;;;;;;38.84;nan;94530.47;4997236;28;20326;-72
2022/05/26 13:10:03;;;;;;;3.00;0.50;;;;;;;38.35;nan;94518.56;4992602;28;20206;-72
2022/05/26 13:12:48;;;;;;;1.13;0.50;;;;;;;36.43;nan;94515.34;5004865;28;20222;-72
2022/05/26 13:15:32;;;;;;;0.85;0.38;;;;;;;36.89;nan;94524.75;5012687;28;20242;-72
2022/05/26 13:18:19;;;;;;;2.97;0.50;;;;;;;37.51;nan;94511.03;5012770;28;20214;-71
2022/05/26 13:21:16;;;;;;;2.42;0.35;;;;;;;39.55;nan;94513.81;5005126;28;20317;-73
2022/05/26 13:24:00;;;;;;;2.03;0.52;;;;;;;38.97;nan;94516.22;5005061;28;20219;-71
2022/05/26 13:26:52;;;;;;;1.75;0.55;;;;;;;37.60;nan;94506.44;5000842;28;20259;-72
2022/05/26 13:29:42;;;;;;;2.75;0.70;;;;;;;39.60;nan;94520.28;5011998;28;20206;-72
2022/05/26 13:35:30;;;;;;;6.25;0.82;;;;;;;37.85;nan;94509.53;5010028;28;20211;-72
2022/05/26 13:38:21;;;;;;;0.75;0.50;;;;;;;37.20;nan;94499.28;5008216;28;20203;-72
2022/05/26 13:41:10;;;;;;;1.15;0.60;;;;;;;38.82;nan;94501.22;5011866;28;20230;-72
2022/05/26 13:43:56;;;;;;;0.68;0.40;;;;;;;38.34;nan;94511.28;5001202;28;20195;-72
2022/05/26 13:46:45;;;;;;;1.05;0.65;;;;;;;38.67;nan;94506.03;5010054;28;20211;-72
2022/05/26 13:49:34;;;;;;;0.73;0.40;;;;;;;39.84;nan;94495.34;4995682;28;20207;-73
2022/05/26 13:52:25;;;;;;;2.60;0.40;;;;;;;38.76;nan;94501.38;4989636;28;20583;-72
2022/05/26 13:55:20;;;;;;;0.70;0.40;;;;;;;39.45;nan;94499.44;5008074;28;20633;-71
2022/05/26 13:58:07;;;;;;;1.83;0.50;;;;;;;39.23;nan;94508.88;5010684;28;20269;-72
2022/05/26 14:01:05;;;;;;;1.35;0.70;;;;;;;38.39;nan;94506.78;5007282;28;20235;-72
2022/05/26 14:03:58;;;;;;;3.28;0.55;;;;;;;40.81;nan;94513.38;4965725;28;20283;-72
2022/05/26 14:06:43;;;;;;;1.95;0.65;;;;;;;41.48;nan;94513.22;5002889;28;20695;-70
2022/05/26 14:09:28;;;;;;;2.33;0.40;;;;;;;39.48;nan;94497.91;5011223;28;20703;-69
2022/05/26 14:12:24;;;;;;;0.50;0.35;;;;;;;40.11;nan;94495.22;5003793;28;20269;-70
2022/05/26 14:15:09;;;;;;;2.15;0.52;;;;;;;40.66;nan;94500.72;5007273;28;20603;-70
2022/05/26 14:17:58;;;;;;;2.10;0.43;;;;;;;42.23;nan;94504.34;4997864;28;20279;-71
2022/05/26 14:20:42;;;;;;;3.63;0.80;;;;;;;40.04;nan;94497.63;5007991;28;20207;-70
2022/05/26 14:23:28;;;;;;;4.28;0.50;;;;;;;39.99;nan;94491.19;4990785;28;20339;-70
2022/05/26 14:26:32;;;;;;;5.95;0.70;;;;;;;38.75;nan;94482.38;5008388;28;20207;-70